createdAt,value
2023-03-03T00:00:58.090Z,99.90
2023-03-03T00:03:27.430Z,99.90
2023-03-03T00:05:54.638Z,99.90
2023-03-03T00:08:21.972Z,99.90
2023-03-03T00:10:49.053Z,99.90
2023-03-03T00:13:19.069Z,99.90
2023-03-03T00:15:46.760Z,99.90
2023-03-03T00:18:34.936Z,99.90
2023-03-03T00:21:03.980Z,99.90
2023-03-03T00:23:39.380Z,99.90
2023-03-03T00:26:26.478Z,99.90
2023-03-03T00:28:54.777Z,99.90
2023-03-03T00:31:34.697Z,99.90
2023-03-03T00:34:18.544Z,99.90
2023-03-03T00:36:53.545Z,99.90
2023-03-03T00:39:32.009Z,99.90
2023-03-03T00:44:33.628Z,99.90
2023-03-03T00:47:27.753Z,99.90
2023-03-03T00:50:36.648Z,99.90
2023-03-03T00:53:05.024Z,99.90
2023-03-03T00:55:33.917Z,99.90
2023-03-03T00:58:00.907Z,99.90
2023-03-03T01:00:27.762Z,99.90
2023-03-03T01:02:54.745Z,99.90
2023-03-03T01:05:21.823Z,99.90
2023-03-03T01:07:48.752Z,99.90
2023-03-03T01:10:15.671Z,99.90
2023-03-03T01:12:42.572Z,99.90
2023-03-03T01:15:12.361Z,99.90
2023-03-03T01:17:40.138Z,99.90
2023-03-03T01:20:08.950Z,99.90
2023-03-03T01:22:35.775Z,99.90
2023-03-03T01:25:05.833Z,99.90
2023-03-03T01:27:32.677Z,99.90
2023-03-03T01:29:59.738Z,99.90
2023-03-03T01:32:27.263Z,99.90
2023-03-03T01:34:54.796Z,99.90
2023-03-03T01:37:22.390Z,99.90
2023-03-03T01:39:54.103Z,99.90
2023-03-03T01:42:21.456Z,99.90
2023-03-03T01:44:48.654Z,99.90
2023-03-03T01:47:28.535Z,99.90
2023-03-03T01:50:04.767Z,99.90
2023-03-03T01:52:39.416Z,99.90
2023-03-03T01:55:15.609Z,99.90
2023-03-03T01:57:46.940Z,99.90
2023-03-03T02:00:14.528Z,99.90
2023-03-03T02:02:42.632Z,99.90
2023-03-03T02:05:10.828Z,99.90
2023-03-03T02:07:38.799Z,99.90
2023-03-03T02:10:17.281Z,99.90
2023-03-03T02:12:55.791Z,99.90
2023-03-03T02:15:28.955Z,99.90
2023-03-03T02:17:56.781Z,99.90
2023-03-03T02:20:38.193Z,99.90
2023-03-03T02:23:30.876Z,99.90
2023-03-03T02:25:59.189Z,99.90
2023-03-03T02:28:32.631Z,99.90
2023-03-03T02:31:00.718Z,99.90
2023-03-03T02:33:28.348Z,99.90
2023-03-03T02:35:55.386Z,99.90
2023-03-03T02:38:36.797Z,99.90
2023-03-03T02:41:35.104Z,99.90
2023-03-03T02:44:14.099Z,99.90
2023-03-03T02:46:43.982Z,99.90
2023-03-03T02:49:12.962Z,99.90
2023-03-03T02:51:41.199Z,99.90
2023-03-03T02:54:09.690Z,99.90
2023-03-03T02:56:36.912Z,99.90
2023-03-03T02:59:04.501Z,99.90
2023-03-03T03:01:37.054Z,99.90
2023-03-03T03:04:09.533Z,99.90
2023-03-03T03:06:37.033Z,99.90
2023-03-03T03:09:05.750Z,99.90
2023-03-03T03:11:33.072Z,99.90
2023-03-03T03:13:59.977Z,99.90
2023-03-03T03:16:26.845Z,99.90
2023-03-03T03:18:53.719Z,99.90
2023-03-03T03:21:20.720Z,99.90
2023-03-03T03:23:47.570Z,99.90
2023-03-03T03:26:14.443Z,99.90
2023-03-03T03:28:41.392Z,99.90
2023-03-03T03:31:09.729Z,99.90
2023-03-03T03:33:36.794Z,99.90
2023-03-03T03:36:04.783Z,99.90
2023-03-03T03:38:32.105Z,99.90
2023-03-03T03:40:59.455Z,99.90
2023-03-03T03:43:26.959Z,99.90
2023-03-03T03:45:53.922Z,99.90
2023-03-03T03:48:21.097Z,99.90
2023-03-03T03:50:51.376Z,99.90
2023-03-03T03:53:19.158Z,99.90
2023-03-03T03:55:46.285Z,99.90
2023-03-03T03:58:14.998Z,99.90
2023-03-03T04:00:43.184Z,99.90
2023-03-03T04:03:10.960Z,99.90
2023-03-03T04:05:38.083Z,99.90
2023-03-03T04:08:04.998Z,99.90
2023-03-03T04:10:31.932Z,99.90
2023-03-03T04:12:58.933Z,99.90
2023-03-03T04:15:25.940Z,99.90
2023-03-03T04:17:52.809Z,99.90
2023-03-03T04:20:20.001Z,99.90
2023-03-03T04:22:46.844Z,99.90
2023-03-03T04:25:16.598Z,99.90
2023-03-03T04:27:44.549Z,99.90
2023-03-03T04:30:13.483Z,99.90
2023-03-03T04:32:40.381Z,99.90
2023-03-03T04:35:17.038Z,99.90
2023-03-03T04:37:43.875Z,99.90
2023-03-03T04:40:11.774Z,99.90
2023-03-03T04:42:38.698Z,99.90
2023-03-03T04:45:06.268Z,99.90
2023-03-03T04:47:33.552Z,99.90
2023-03-03T04:50:00.937Z,99.90
2023-03-03T04:52:27.912Z,99.90
2023-03-03T04:54:55.041Z,99.90
2023-03-03T04:57:21.931Z,99.90
2023-03-03T05:02:16.070Z,99.90
2023-03-03T05:07:10.227Z,99.90
2023-03-03T05:09:37.233Z,99.90
2023-03-03T05:12:04.515Z,99.90
2023-03-03T05:14:31.607Z,99.90
2023-03-03T05:16:58.751Z,99.90
2023-03-03T05:19:26.470Z,99.90
2023-03-03T05:21:53.348Z,99.90
2023-03-03T05:24:20.378Z,99.90
2023-03-03T05:26:47.383Z,99.90
2023-03-03T05:29:14.265Z,99.90
2023-03-03T05:31:41.792Z,99.90
2023-03-03T05:34:09.712Z,99.90
2023-03-03T05:36:36.723Z,99.90
2023-03-03T05:39:04.509Z,99.90
2023-03-03T05:41:31.406Z,99.90
2023-03-03T05:43:58.261Z,99.90
2023-03-03T05:46:25.229Z,99.90
2023-03-03T05:48:52.134Z,99.90
2023-03-03T05:51:19.118Z,99.90
2023-03-03T05:56:13.265Z,99.90
2023-03-03T05:58:40.290Z,99.90
2023-03-03T06:01:07.623Z,99.90
2023-03-03T06:03:34.733Z,99.90
2023-03-03T06:06:01.569Z,99.90
2023-03-03T06:08:29.533Z,99.90
2023-03-03T06:10:56.565Z,99.90
2023-03-03T06:13:23.396Z,99.90
2023-03-03T06:15:50.227Z,99.90
2023-03-03T06:18:17.159Z,99.90
2023-03-03T06:20:44.070Z,99.90
2023-03-03T06:23:10.932Z,99.90
2023-03-03T06:25:39.448Z,99.90
2023-03-03T06:28:06.274Z,99.90
2023-03-03T06:30:33.177Z,99.90
2023-03-03T06:32:59.978Z,99.90
2023-03-03T06:35:27.914Z,99.90
2023-03-03T06:37:54.841Z,99.90
2023-03-03T06:40:22.000Z,99.90
2023-03-03T06:42:49.081Z,99.90
2023-03-03T06:45:16.495Z,99.90
2023-03-03T06:47:43.413Z,99.90
2023-03-03T06:50:11.987Z,99.90
2023-03-03T06:52:39.025Z,99.90
2023-03-03T06:55:17.569Z,99.90
2023-03-03T06:57:44.465Z,99.90
2023-03-03T07:00:30.687Z,99.90
2023-03-03T07:03:08.294Z,99.90
2023-03-03T07:05:35.140Z,99.90
2023-03-03T07:08:02.032Z,99.90
2023-03-03T07:10:30.728Z,99.90
2023-03-03T07:13:07.076Z,99.90
2023-03-03T07:15:36.225Z,99.90
2023-03-03T07:18:06.680Z,99.90
2023-03-03T07:20:38.800Z,99.90
2023-03-03T07:23:27.512Z,99.90
2023-03-03T07:25:54.781Z,99.90
2023-03-03T07:28:27.652Z,99.90
2023-03-03T07:30:56.411Z,99.90
2023-03-03T07:33:35.282Z,99.90
2023-03-03T07:36:04.232Z,99.90
2023-03-03T07:38:38.630Z,99.90
2023-03-03T07:41:23.619Z,99.90
2023-03-03T07:44:03.950Z,99.90
2023-03-03T07:46:43.249Z,99.90
2023-03-03T07:49:21.071Z,99.90
2023-03-03T07:51:51.539Z,99.90
2023-03-03T07:54:40.475Z,99.90
2023-03-03T07:57:35.155Z,99.90
2023-03-03T08:00:18.616Z,99.90
2023-03-03T08:02:57.650Z,99.90
2023-03-03T08:05:36.066Z,99.90
2023-03-03T08:08:29.844Z,99.90
2023-03-03T08:11:01.255Z,99.90
2023-03-03T08:13:38.662Z,99.90
2023-03-03T08:16:11.702Z,99.90
2023-03-03T08:18:40.057Z,99.90
2023-03-03T08:21:13.397Z,99.90
2023-03-03T08:23:40.372Z,99.90
2023-03-03T08:26:07.833Z,99.90
2023-03-03T08:28:34.653Z,99.90
2023-03-03T08:31:15.381Z,99.90
2023-03-03T08:33:45.270Z,99.90
2023-03-03T08:36:12.346Z,99.90
2023-03-03T08:38:39.436Z,99.90
2023-03-03T08:41:06.707Z,99.90
2023-03-03T08:46:02.922Z,99.90
2023-03-03T08:48:29.881Z,99.90
2023-03-03T08:50:57.041Z,99.90
2023-03-03T08:53:24.378Z,99.90
2023-03-03T08:55:51.428Z,99.90
2023-03-03T08:58:20.391Z,99.90
2023-03-03T09:00:50.221Z,99.90
2023-03-03T09:03:18.088Z,99.90
2023-03-03T09:05:45.798Z,99.90
2023-03-03T09:08:12.745Z,99.90
2023-03-03T09:10:39.726Z,99.90
2023-03-03T09:13:19.100Z,99.90
2023-03-03T09:15:46.936Z,99.90
2023-03-03T09:18:16.876Z,99.90
2023-03-03T09:20:48.971Z,99.90
2023-03-03T09:23:35.760Z,99.90
2023-03-03T09:26:43.342Z,99.90
2023-03-03T09:29:23.898Z,99.90
2023-03-03T09:32:00.403Z,99.90
2023-03-03T09:34:36.332Z,99.90
2023-03-03T09:37:27.674Z,99.90
2023-03-03T09:39:57.579Z,99.90
2023-03-03T09:42:24.792Z,99.90
2023-03-03T09:45:19.316Z,99.90
2023-03-03T09:48:07.970Z,99.90
2023-03-03T09:50:53.636Z,99.90
2023-03-03T09:53:57.803Z,99.90
2023-03-03T09:56:37.899Z,99.90
2023-03-03T09:59:25.397Z,99.90
2023-03-03T10:01:55.278Z,99.90
2023-03-03T10:04:37.804Z,99.90
2023-03-03T10:07:16.678Z,99.90
2023-03-03T10:10:05.927Z,99.90
2023-03-03T10:12:39.073Z,99.90
2023-03-03T10:15:08.637Z,99.90
2023-03-03T10:17:38.321Z,99.90
2023-03-03T10:20:20.085Z,99.90
2023-03-03T10:22:55.046Z,99.90
2023-03-03T10:25:35.201Z,99.90
2023-03-03T10:28:05.138Z,99.90
2023-03-03T10:31:13.625Z,99.90
2023-03-03T10:33:48.087Z,99.90
2023-03-03T10:36:30.569Z,99.90
2023-03-03T10:39:06.811Z,99.90
2023-03-03T10:41:48.419Z,99.90
2023-03-03T10:44:53.258Z,99.90
2023-03-03T10:47:48.921Z,99.90
2023-03-03T10:50:42.500Z,99.90
2023-03-03T10:53:23.788Z,99.90
2023-03-03T10:56:04.909Z,99.90
2023-03-03T10:58:50.790Z,99.90
2023-03-03T11:01:47.483Z,99.90
2023-03-03T11:04:29.145Z,99.90
2023-03-03T11:07:23.909Z,99.90
2023-03-03T11:10:15.054Z,99.90
2023-03-03T11:13:30.894Z,99.90
2023-03-03T11:16:48.953Z,99.90
2023-03-03T11:19:34.488Z,99.90
2023-03-03T11:22:25.656Z,99.90
2023-03-03T11:24:58.520Z,99.90
2023-03-03T11:27:43.432Z,99.90
2023-03-03T11:30:36.942Z,99.90
2023-03-03T11:33:30.060Z,99.90
2023-03-03T11:36:14.535Z,99.90
2023-03-03T11:38:59.422Z,99.90
2023-03-03T11:41:35.337Z,99.90
2023-03-03T11:44:24.489Z,99.90
2023-03-03T11:47:00.665Z,99.90
2023-03-03T11:49:54.251Z,99.90
2023-03-03T11:52:45.713Z,99.90
2023-03-03T11:55:19.367Z,99.90
2023-03-03T11:57:54.555Z,99.80
2023-03-03T12:00:34.054Z,98.90
2023-03-03T12:03:04.699Z,98.70
2023-03-03T12:06:08.195Z,98.10
2023-03-03T12:08:45.238Z,94.00
2023-03-03T12:11:25.122Z,92.50
2023-03-03T12:14:10.762Z,92.70
2023-03-03T12:17:03.409Z,91.00
2023-03-03T12:19:54.662Z,90.50
2023-03-03T12:22:34.354Z,92.60
2023-03-03T12:25:25.216Z,92.40
2023-03-03T12:27:58.200Z,90.70
2023-03-03T12:30:43.419Z,90.80
2023-03-03T12:33:15.994Z,91.70
2023-03-03T12:35:56.636Z,92.70
2023-03-03T12:38:26.229Z,91.60
2023-03-03T12:41:15.717Z,92.20
2023-03-03T12:43:54.598Z,93.60
2023-03-03T12:46:35.455Z,93.50
2023-03-03T12:49:02.280Z,92.20
2023-03-03T12:51:57.174Z,92.20
2023-03-03T12:54:50.428Z,93.30
2023-03-03T12:57:36.346Z,94.50
2023-03-03T13:00:36.221Z,95.40
2023-03-03T13:03:15.406Z,96.00
2023-03-03T13:06:06.407Z,96.30
2023-03-03T13:09:03.563Z,96.20
2023-03-03T13:11:35.357Z,96.70
2023-03-03T13:14:02.118Z,97.40
2023-03-03T13:16:41.598Z,97.50
2023-03-03T13:19:16.661Z,97.70
2023-03-03T13:22:03.410Z,98.20
2023-03-03T13:24:53.198Z,97.40
2023-03-03T13:27:24.390Z,96.00
2023-03-03T13:29:57.883Z,96.40
2023-03-03T13:32:35.164Z,96.00
2023-03-03T13:35:01.970Z,96.90
2023-03-03T13:37:47.028Z,96.60
2023-03-03T13:40:13.864Z,95.80
2023-03-03T13:42:45.876Z,95.50
2023-03-03T13:45:21.824Z,94.10
2023-03-03T13:48:07.492Z,94.70
2023-03-03T13:50:52.921Z,95.10
2023-03-03T13:53:34.297Z,95.30
2023-03-03T13:56:19.694Z,96.40
2023-03-03T13:59:06.226Z,97.10
2023-03-03T14:01:44.326Z,97.40
2023-03-03T14:04:48.372Z,98.00
2023-03-03T14:07:24.551Z,98.90
2023-03-03T14:10:21.935Z,99.30
2023-03-03T14:12:57.119Z,98.60
2023-03-03T14:15:29.026Z,99.20
2023-03-03T14:18:12.107Z,99.40
2023-03-03T14:20:44.304Z,99.90
2023-03-03T14:23:18.259Z,99.90
2023-03-03T14:25:58.613Z,99.90
2023-03-03T14:28:37.378Z,99.90
2023-03-03T14:31:26.474Z,99.90
2023-03-03T14:34:02.359Z,99.90
2023-03-03T14:36:38.334Z,99.90
2023-03-03T14:39:35.391Z,99.90
2023-03-03T14:42:10.844Z,99.90
2023-03-03T14:44:55.024Z,99.90
2023-03-03T14:47:22.322Z,99.90
2023-03-03T14:49:50.793Z,99.90
2023-03-03T14:52:17.692Z,99.90
2023-03-03T14:54:50.232Z,99.90
2023-03-03T14:57:35.685Z,99.90
2023-03-03T15:00:14.989Z,99.90
2023-03-03T15:02:43.963Z,99.90
2023-03-03T15:05:20.482Z,99.90
2023-03-03T15:07:53.283Z,99.90
2023-03-03T15:10:35.466Z,99.90
2023-03-03T15:13:20.670Z,99.90
2023-03-03T15:16:23.033Z,99.90
2023-03-03T15:19:01.137Z,99.90
2023-03-03T15:21:35.614Z,99.90
2023-03-03T15:24:29.083Z,99.90
2023-03-03T15:27:08.686Z,99.90
2023-03-03T15:30:02.217Z,99.90
2023-03-03T15:32:44.395Z,99.90
2023-03-03T15:35:29.841Z,99.90
2023-03-03T15:38:07.425Z,99.90
2023-03-03T15:40:49.582Z,99.90
2023-03-03T15:43:25.193Z,99.90
2023-03-03T15:46:14.993Z,99.90
2023-03-03T15:48:41.885Z,99.90
2023-03-03T15:51:37.779Z,99.90
2023-03-03T15:54:28.624Z,99.90
2023-03-03T15:57:04.559Z,99.90
2023-03-03T15:59:37.276Z,99.90
2023-03-03T16:02:35.088Z,99.90
2023-03-03T16:05:24.241Z,99.90
2023-03-03T16:08:33.001Z,99.90
2023-03-03T16:11:28.284Z,99.90
2023-03-03T16:14:11.006Z,99.90
2023-03-03T16:17:13.597Z,99.90
2023-03-03T16:20:17.086Z,99.90
2023-03-03T16:25:21.143Z,99.90
2023-03-03T16:27:57.576Z,99.90
2023-03-03T16:33:01.080Z,99.90
2023-03-03T16:35:35.680Z,99.90
2023-03-03T16:38:11.433Z,99.90
2023-03-03T16:40:52.749Z,99.90
2023-03-03T16:43:44.128Z,99.90
2023-03-03T16:46:25.802Z,99.90
2023-03-03T16:49:17.261Z,99.90
2023-03-03T16:54:39.416Z,99.90
2023-03-03T16:57:19.677Z,99.90
2023-03-03T16:59:50.670Z,99.90
2023-03-03T17:02:26.528Z,99.90
2023-03-03T17:05:13.839Z,99.90
2023-03-03T17:08:14.269Z,99.90
2023-03-03T17:11:00.739Z,99.90
2023-03-03T17:14:03.041Z,99.90
2023-03-03T17:16:51.489Z,99.90
2023-03-03T17:21:59.561Z,99.90
2023-03-03T17:24:35.198Z,99.90
2023-03-03T17:27:29.388Z,99.90
2023-03-03T17:30:10.555Z,99.90
2023-03-03T17:32:39.917Z,99.90
2023-03-03T17:35:25.377Z,99.90
2023-03-03T17:38:25.243Z,99.90
2023-03-03T17:41:01.002Z,99.90
2023-03-03T17:43:33.129Z,99.90
2023-03-03T17:46:04.252Z,99.90
2023-03-03T17:48:48.018Z,99.90
2023-03-03T17:51:33.971Z,99.90
2023-03-03T17:54:21.822Z,99.90
2023-03-03T17:57:19.382Z,99.90
2023-03-03T17:59:52.300Z,99.90
2023-03-03T18:03:12.485Z,99.90
2023-03-03T18:06:10.657Z,99.90
2023-03-03T18:09:13.683Z,99.90
2023-03-03T18:11:44.066Z,99.90
2023-03-03T18:14:48.752Z,99.90
2023-03-03T18:20:01.357Z,99.90
2023-03-03T18:22:54.157Z,99.90
2023-03-03T18:25:58.771Z,99.90
2023-03-03T18:28:47.222Z,99.90
2023-03-03T18:31:43.905Z,99.90
2023-03-03T18:34:34.600Z,99.90
2023-03-03T18:37:23.100Z,99.90
2023-03-03T18:40:10.565Z,99.90
2023-03-03T18:42:39.856Z,99.90
2023-03-03T18:45:29.528Z,99.90
2023-03-03T18:48:08.677Z,99.90
2023-03-03T18:50:41.162Z,99.90
2023-03-03T18:53:10.948Z,99.90
2023-03-03T18:55:53.603Z,99.90
2023-03-03T18:58:20.411Z,99.90
2023-03-03T19:01:15.900Z,99.90
2023-03-03T19:03:48.509Z,99.90
2023-03-03T19:06:37.270Z,99.90
2023-03-03T19:09:06.968Z,99.90
2023-03-03T19:11:36.819Z,99.90
2023-03-03T19:14:21.252Z,99.90
2023-03-03T19:19:19.536Z,99.90
2023-03-03T19:21:51.729Z,99.90
2023-03-03T19:24:34.320Z,99.90
2023-03-03T19:27:30.491Z,99.90
2023-03-03T19:30:11.134Z,99.90
2023-03-03T19:33:10.152Z,99.90
2023-03-03T19:36:13.172Z,99.90
2023-03-03T19:41:30.160Z,99.90
2023-03-03T19:44:23.647Z,99.90
2023-03-03T19:47:19.466Z,99.90
2023-03-03T19:50:01.124Z,99.90
2023-03-03T19:52:49.803Z,99.90
2023-03-03T19:55:25.592Z,99.90
2023-03-03T19:58:17.609Z,99.90
2023-03-03T20:01:08.602Z,99.90
2023-03-03T20:03:59.766Z,99.90
2023-03-03T20:06:51.096Z,99.90
2023-03-03T20:09:32.702Z,99.90
2023-03-03T20:12:14.566Z,99.90
2023-03-03T20:14:46.812Z,99.90
2023-03-03T20:17:38.621Z,99.90
2023-03-03T20:22:44.684Z,99.90
2023-03-03T20:25:18.420Z,99.90
2023-03-03T20:28:00.544Z,99.90
2023-03-03T20:33:14.750Z,99.90
2023-03-03T20:35:44.283Z,99.90
2023-03-03T20:38:27.606Z,99.90
2023-03-03T20:41:17.000Z,99.90
2023-03-03T20:43:56.699Z,99.90
2023-03-03T20:46:58.679Z,99.90
2023-03-03T20:52:05.787Z,99.90
2023-03-03T20:57:07.987Z,99.90
2023-03-03T20:59:48.136Z,99.90
2023-03-03T21:02:33.263Z,99.90
2023-03-03T21:05:22.540Z,99.90
2023-03-03T21:07:57.839Z,99.90
2023-03-03T21:10:28.947Z,99.90
2023-03-03T21:12:58.159Z,99.90
2023-03-03T21:15:34.247Z,99.90
2023-03-03T21:20:34.688Z,99.90
2023-03-03T21:23:02.872Z,99.90
2023-03-03T21:25:49.595Z,99.90
2023-03-03T21:28:25.399Z,99.90
2023-03-03T21:31:13.274Z,99.90
2023-03-03T21:36:08.152Z,99.90
2023-03-03T21:38:37.011Z,99.90
2023-03-03T21:41:03.936Z,99.90
2023-03-03T21:43:34.150Z,99.90
2023-03-03T21:48:28.445Z,99.90
2023-03-03T21:55:50.901Z,99.90
2023-03-03T22:00:45.540Z,99.90
2023-03-03T22:03:15.276Z,99.90
2023-03-03T22:10:36.681Z,99.90
2023-03-03T22:15:33.368Z,99.90
2023-03-03T22:18:00.772Z,99.90
2023-03-03T22:20:27.666Z,99.90
2023-03-03T22:30:17.285Z,99.90
2023-03-03T22:32:44.100Z,99.90
2023-03-03T22:37:38.260Z,99.90
2023-03-03T22:44:59.786Z,99.90
2023-03-03T22:49:53.880Z,99.90
2023-03-03T22:52:20.717Z,99.90
2023-03-03T22:57:14.749Z,99.90
2023-03-03T23:02:08.942Z,99.90
2023-03-03T23:04:35.849Z,99.90
2023-03-03T23:07:02.745Z,99.90
2023-03-03T23:09:29.629Z,99.90
2023-03-03T23:14:23.783Z,99.90
2023-03-03T23:21:45.083Z,99.90
2023-03-03T23:24:11.991Z,99.90
2023-03-03T23:31:33.646Z,99.90
2023-03-03T23:36:28.187Z,99.90
2023-03-03T23:38:55.036Z,99.90
2023-03-03T23:43:49.200Z,99.90
2023-03-03T23:46:16.035Z,99.90
